sensor_id;sensor_type;location;lat;lon;timestamp;temperature;humidity
22714;DHT22;11524;50.846;4.326;2022-08-03T00:01:16;28.70;51.90
22714;DHT22;11524;50.846;4.326;2022-08-03T00:03:42;28.70;51.80
22714;DHT22;11524;50.846;4.326;2022-08-03T00:06:08;28.70;51.80
22714;DHT22;11524;50.846;4.326;2022-08-03T00:08:33;28.70;51.80
22714;DHT22;11524;50.846;4.326;2022-08-03T00:10:59;28.70;51.80
22714;DHT22;11524;50.846;4.326;2022-08-03T00:13:25;28.60;51.80
22714;DHT22;11524;50.846;4.326;2022-08-03T00:15:51;28.70;51.70
22714;DHT22;11524;50.846;4.326;2022-08-03T00:18:17;28.70;51.60
22714;DHT22;11524;50.846;4.326;2022-08-03T00:20:43;28.70;51.60
22714;DHT22;11524;50.846;4.326;2022-08-03T00:23:09;28.70;51.60
22714;DHT22;11524;50.846;4.326;2022-08-03T00:25:35;28.70;51.50
22714;DHT22;11524;50.846;4.326;2022-08-03T00:28:03;28.70;51.60
22714;DHT22;11524;50.846;4.326;2022-08-03T00:30:29;28.60;51.70
22714;DHT22;11524;50.846;4.326;2022-08-03T00:32:55;28.50;51.80
22714;DHT22;11524;50.846;4.326;2022-08-03T00:35:21;28.50;52.00
22714;DHT22;11524;50.846;4.326;2022-08-03T00:37:47;28.40;52.30
22714;DHT22;11524;50.846;4.326;2022-08-03T00:40:14;28.30;52.40
22714;DHT22;11524;50.846;4.326;2022-08-03T00:42:52;28.30;52.50
22714;DHT22;11524;50.846;4.326;2022-08-03T00:45:22;28.30;52.60
22714;DHT22;11524;50.846;4.326;2022-08-03T00:47:48;28.30;52.50
22714;DHT22;11524;50.846;4.326;2022-08-03T00:50:14;28.30;52.60
22714;DHT22;11524;50.846;4.326;2022-08-03T00:52:40;28.30;52.70
22714;DHT22;11524;50.846;4.326;2022-08-03T00:55:06;28.40;52.60
22714;DHT22;11524;50.846;4.326;2022-08-03T00:57:32;28.40;52.60
22714;DHT22;11524;50.846;4.326;2022-08-03T00:59:58;28.40;52.60
22714;DHT22;11524;50.846;4.326;2022-08-03T01:02:28;28.30;52.60
22714;DHT22;11524;50.846;4.326;2022-08-03T01:04:54;28.30;52.90
22714;DHT22;11524;50.846;4.326;2022-08-03T01:10:11;28.10;52.80
22714;DHT22;11524;50.846;4.326;2022-08-03T01:18:00;28.20;52.90
22714;DHT22;11524;50.846;4.326;2022-08-03T01:20:32;28.20;52.80
22714;DHT22;11524;50.846;4.326;2022-08-03T01:31:51;28.20;52.70
22714;DHT22;11524;50.846;4.326;2022-08-03T01:34:18;28.30;52.50
22714;DHT22;11524;50.846;4.326;2022-08-03T01:36:50;28.40;52.50
22714;DHT22;11524;50.846;4.326;2022-08-03T01:39:18;28.40;52.30
22714;DHT22;11524;50.846;4.326;2022-08-03T01:41:52;28.40;52.40
22714;DHT22;11524;50.846;4.326;2022-08-03T01:44:19;28.30;52.50
22714;DHT22;11524;50.846;4.326;2022-08-03T01:46:47;28.20;52.60
22714;DHT22;11524;50.846;4.326;2022-08-03T01:49:16;28.20;52.80
22714;DHT22;11524;50.846;4.326;2022-08-03T01:51:44;28.10;52.70
22714;DHT22;11524;50.846;4.326;2022-08-03T01:54:12;28.10;52.90
22714;DHT22;11524;50.846;4.326;2022-08-03T01:56:40;28.10;53.00
22714;DHT22;11524;50.846;4.326;2022-08-03T01:59:07;28.20;52.90
22714;DHT22;11524;50.846;4.326;2022-08-03T02:01:35;28.20;52.80
22714;DHT22;11524;50.846;4.326;2022-08-03T02:04:02;28.30;52.70
22714;DHT22;11524;50.846;4.326;2022-08-03T02:06:31;28.20;52.60
22714;DHT22;11524;50.846;4.326;2022-08-03T02:08:58;28.20;52.60
22714;DHT22;11524;50.846;4.326;2022-08-03T02:11:26;28.10;52.60
22714;DHT22;11524;50.846;4.326;2022-08-03T02:13:52;28.10;52.50
22714;DHT22;11524;50.846;4.326;2022-08-03T02:16:19;28.10;52.60
22714;DHT22;11524;50.846;4.326;2022-08-03T02:18:47;28.00;52.60
22714;DHT22;11524;50.846;4.326;2022-08-03T02:21:13;28.00;52.60
22714;DHT22;11524;50.846;4.326;2022-08-03T02:23:39;28.00;52.70
22714;DHT22;11524;50.846;4.326;2022-08-03T02:26:13;28.00;52.80
22714;DHT22;11524;50.846;4.326;2022-08-03T02:28:42;28.10;52.80
22714;DHT22;11524;50.846;4.326;2022-08-03T02:31:17;28.10;52.70
22714;DHT22;11524;50.846;4.326;2022-08-03T02:33:49;28.10;52.70
22714;DHT22;11524;50.846;4.326;2022-08-03T02:36:27;28.10;52.60
22714;DHT22;11524;50.846;4.326;2022-08-03T02:38:56;28.10;52.60
22714;DHT22;11524;50.846;4.326;2022-08-03T02:41:27;28.20;52.60
22714;DHT22;11524;50.846;4.326;2022-08-03T02:43:55;28.10;52.60
22714;DHT22;11524;50.846;4.326;2022-08-03T02:46:36;28.10;52.40
22714;DHT22;11524;50.846;4.326;2022-08-03T02:49:03;28.10;52.60
22714;DHT22;11524;50.846;4.326;2022-08-03T02:51:33;28.20;52.50
22714;DHT22;11524;50.846;4.326;2022-08-03T02:54:02;28.20;52.50
22714;DHT22;11524;50.846;4.326;2022-08-03T02:56:28;28.30;52.40
22714;DHT22;11524;50.846;4.326;2022-08-03T02:58:55;28.30;52.30
22714;DHT22;11524;50.846;4.326;2022-08-03T03:01:24;28.30;52.20
22714;DHT22;11524;50.846;4.326;2022-08-03T03:03:51;28.30;52.30
22714;DHT22;11524;50.846;4.326;2022-08-03T03:06:18;28.30;52.10
22714;DHT22;11524;50.846;4.326;2022-08-03T03:08:45;28.30;52.10
22714;DHT22;11524;50.846;4.326;2022-08-03T03:11:12;28.30;52.00
22714;DHT22;11524;50.846;4.326;2022-08-03T03:13:41;28.30;52.00
22714;DHT22;11524;50.846;4.326;2022-08-03T03:16:11;28.30;52.00
22714;DHT22;11524;50.846;4.326;2022-08-03T03:18:38;28.30;51.90
22714;DHT22;11524;50.846;4.326;2022-08-03T03:21:06;28.30;52.00
22714;DHT22;11524;50.846;4.326;2022-08-03T03:23:37;28.20;52.00
22714;DHT22;11524;50.846;4.326;2022-08-03T03:26:04;28.20;52.00
22714;DHT22;11524;50.846;4.326;2022-08-03T03:28:30;28.20;52.10
22714;DHT22;11524;50.846;4.326;2022-08-03T03:30:57;28.20;52.20
22714;DHT22;11524;50.846;4.326;2022-08-03T03:33:23;28.20;52.10
22714;DHT22;11524;50.846;4.326;2022-08-03T03:35:49;28.20;52.10
22714;DHT22;11524;50.846;4.326;2022-08-03T03:38:16;28.20;52.10
22714;DHT22;11524;50.846;4.326;2022-08-03T03:40:42;28.20;51.90
22714;DHT22;11524;50.846;4.326;2022-08-03T03:43:10;28.20;52.00
22714;DHT22;11524;50.846;4.326;2022-08-03T03:45:36;28.20;52.10
22714;DHT22;11524;50.846;4.326;2022-08-03T03:48:06;28.10;52.00
22714;DHT22;11524;50.846;4.326;2022-08-03T03:50:34;28.10;52.00
22714;DHT22;11524;50.846;4.326;2022-08-03T03:53:03;28.10;52.10
22714;DHT22;11524;50.846;4.326;2022-08-03T03:55:29;28.10;52.00
22714;DHT22;11524;50.846;4.326;2022-08-03T03:57:55;28.10;51.90
22714;DHT22;11524;50.846;4.326;2022-08-03T04:00:21;28.10;51.80
22714;DHT22;11524;50.846;4.326;2022-08-03T04:02:47;28.00;51.80
22714;DHT22;11524;50.846;4.326;2022-08-03T04:05:13;27.90;51.90
22714;DHT22;11524;50.846;4.326;2022-08-03T04:08:00;28.00;52.10
22714;DHT22;11524;50.846;4.326;2022-08-03T04:14:06;27.80;52.00
22714;DHT22;11524;50.846;4.326;2022-08-03T04:16:36;27.70;52.10
22714;DHT22;11524;50.846;4.326;2022-08-03T04:19:24;27.70;52.20
22714;DHT22;11524;50.846;4.326;2022-08-03T04:21:55;27.70;52.20
22714;DHT22;11524;50.846;4.326;2022-08-03T04:24:22;27.60;52.30
22714;DHT22;11524;50.846;4.326;2022-08-03T04:26:49;27.60;52.30
22714;DHT22;11524;50.846;4.326;2022-08-03T04:29:17;27.50;52.50
22714;DHT22;11524;50.846;4.326;2022-08-03T04:31:44;27.50;52.40
22714;DHT22;11524;50.846;4.326;2022-08-03T04:34:11;27.50;52.50
22714;DHT22;11524;50.846;4.326;2022-08-03T04:36:46;27.50;52.50
22714;DHT22;11524;50.846;4.326;2022-08-03T04:39:17;27.40;52.40
22714;DHT22;11524;50.846;4.326;2022-08-03T04:41:44;27.40;52.60
22714;DHT22;11524;50.846;4.326;2022-08-03T04:44:12;27.50;52.60
22714;DHT22;11524;50.846;4.326;2022-08-03T04:46:38;27.40;52.90
22714;DHT22;11524;50.846;4.326;2022-08-03T04:49:06;27.30;52.70
22714;DHT22;11524;50.846;4.326;2022-08-03T04:51:32;27.40;52.70
22714;DHT22;11524;50.846;4.326;2022-08-03T04:53:59;27.40;52.50
22714;DHT22;11524;50.846;4.326;2022-08-03T04:56:25;27.50;52.40
22714;DHT22;11524;50.846;4.326;2022-08-03T04:58:51;27.60;52.30
22714;DHT22;11524;50.846;4.326;2022-08-03T05:01:18;27.60;52.10
22714;DHT22;11524;50.846;4.326;2022-08-03T05:03:45;27.60;51.80
22714;DHT22;11524;50.846;4.326;2022-08-03T05:06:11;27.60;51.90
22714;DHT22;11524;50.846;4.326;2022-08-03T05:08:37;27.60;51.80
22714;DHT22;11524;50.846;4.326;2022-08-03T05:11:02;27.60;52.00
22714;DHT22;11524;50.846;4.326;2022-08-03T05:13:28;27.60;51.90
22714;DHT22;11524;50.846;4.326;2022-08-03T05:15:54;27.60;51.90
22714;DHT22;11524;50.846;4.326;2022-08-03T05:18:20;27.60;51.80
22714;DHT22;11524;50.846;4.326;2022-08-03T05:20:45;27.60;51.80
22714;DHT22;11524;50.846;4.326;2022-08-03T05:23:11;27.60;51.80
22714;DHT22;11524;50.846;4.326;2022-08-03T05:25:37;27.60;51.70
22714;DHT22;11524;50.846;4.326;2022-08-03T05:28:03;27.70;51.70
22714;DHT22;11524;50.846;4.326;2022-08-03T05:30:28;27.70;51.70
22714;DHT22;11524;50.846;4.326;2022-08-03T05:32:54;27.70;51.60
22714;DHT22;11524;50.846;4.326;2022-08-03T05:35:20;27.80;51.60
22714;DHT22;11524;50.846;4.326;2022-08-03T05:37:45;27.80;51.50
22714;DHT22;11524;50.846;4.326;2022-08-03T05:40:11;27.80;51.30
22714;DHT22;11524;50.846;4.326;2022-08-03T05:42:37;27.80;51.30
22714;DHT22;11524;50.846;4.326;2022-08-03T05:45:04;27.80;51.20
22714;DHT22;11524;50.846;4.326;2022-08-03T05:47:39;27.80;51.30
22714;DHT22;11524;50.846;4.326;2022-08-03T05:50:05;27.80;51.30
22714;DHT22;11524;50.846;4.326;2022-08-03T05:52:31;27.80;51.30
22714;DHT22;11524;50.846;4.326;2022-08-03T05:54:56;27.80;51.40
22714;DHT22;11524;50.846;4.326;2022-08-03T05:57:22;27.80;51.30
22714;DHT22;11524;50.846;4.326;2022-08-03T05:59:48;27.80;51.30
22714;DHT22;11524;50.846;4.326;2022-08-03T06:02:13;27.80;51.30
22714;DHT22;11524;50.846;4.326;2022-08-03T06:04:39;27.80;51.30
22714;DHT22;11524;50.846;4.326;2022-08-03T06:07:04;27.80;51.40
22714;DHT22;11524;50.846;4.326;2022-08-03T06:09:30;27.80;51.30
22714;DHT22;11524;50.846;4.326;2022-08-03T06:11:55;27.90;51.20
22714;DHT22;11524;50.846;4.326;2022-08-03T06:14:21;27.80;51.70
22714;DHT22;11524;50.846;4.326;2022-08-03T06:16:46;27.80;51.20
22714;DHT22;11524;50.846;4.326;2022-08-03T06:19:12;27.80;51.20
22714;DHT22;11524;50.846;4.326;2022-08-03T06:21:38;27.80;51.20
22714;DHT22;11524;50.846;4.326;2022-08-03T06:24:03;27.80;51.30
22714;DHT22;11524;50.846;4.326;2022-08-03T06:26:29;27.80;51.20
22714;DHT22;11524;50.846;4.326;2022-08-03T06:28:56;27.70;51.20
22714;DHT22;11524;50.846;4.326;2022-08-03T06:31:24;27.70;51.20
22714;DHT22;11524;50.846;4.326;2022-08-03T06:33:51;27.70;51.20
22714;DHT22;11524;50.846;4.326;2022-08-03T06:36:17;27.70;51.20
22714;DHT22;11524;50.846;4.326;2022-08-03T06:38:42;27.70;51.20
22714;DHT22;11524;50.846;4.326;2022-08-03T06:41:08;27.70;51.10
22714;DHT22;11524;50.846;4.326;2022-08-03T06:43:33;27.70;51.10
22714;DHT22;11524;50.846;4.326;2022-08-03T06:46:02;27.70;51.10
22714;DHT22;11524;50.846;4.326;2022-08-03T06:48:31;27.70;51.00
22714;DHT22;11524;50.846;4.326;2022-08-03T06:50:56;27.80;50.90
22714;DHT22;11524;50.846;4.326;2022-08-03T06:53:22;27.80;50.80
22714;DHT22;11524;50.846;4.326;2022-08-03T06:55:48;28.00;50.60
22714;DHT22;11524;50.846;4.326;2022-08-03T06:58:13;28.10;50.30
22714;DHT22;11524;50.846;4.326;2022-08-03T07:00:39;28.30;50.60
22714;DHT22;11524;50.846;4.326;2022-08-03T07:03:05;28.80;49.30
22714;DHT22;11524;50.846;4.326;2022-08-03T07:05:30;29.20;49.10
22714;DHT22;11524;50.846;4.326;2022-08-03T07:08:02;29.60;47.70
22714;DHT22;11524;50.846;4.326;2022-08-03T07:10:28;29.90;47.10
22714;DHT22;11524;50.846;4.326;2022-08-03T07:12:54;30.20;46.70
22714;DHT22;11524;50.846;4.326;2022-08-03T07:15:19;30.40;46.20
22714;DHT22;11524;50.846;4.326;2022-08-03T07:17:45;30.60;45.80
22714;DHT22;11524;50.846;4.326;2022-08-03T07:20:11;30.70;45.40
22714;DHT22;11524;50.846;4.326;2022-08-03T07:22:37;30.80;45.00
22714;DHT22;11524;50.846;4.326;2022-08-03T07:25:03;31.00;45.00
22714;DHT22;11524;50.846;4.326;2022-08-03T07:27:29;31.10;44.70
22714;DHT22;11524;50.846;4.326;2022-08-03T07:29:56;31.20;44.50
22714;DHT22;11524;50.846;4.326;2022-08-03T07:32:23;31.30;44.30
22714;DHT22;11524;50.846;4.326;2022-08-03T07:34:48;31.30;44.20
22714;DHT22;11524;50.846;4.326;2022-08-03T07:37:14;31.40;44.10
22714;DHT22;11524;50.846;4.326;2022-08-03T07:39:40;31.50;44.00
22714;DHT22;11524;50.846;4.326;2022-08-03T07:42:05;31.60;43.80
22714;DHT22;11524;50.846;4.326;2022-08-03T07:44:31;31.70;43.60
22714;DHT22;11524;50.846;4.326;2022-08-03T07:46:57;31.90;43.40
22714;DHT22;11524;50.846;4.326;2022-08-03T07:49:22;31.90;43.20
22714;DHT22;11524;50.846;4.326;2022-08-03T07:51:48;32.00;43.10
22714;DHT22;11524;50.846;4.326;2022-08-03T07:54:33;31.90;43.10
22714;DHT22;11524;50.846;4.326;2022-08-03T07:56:59;31.90;43.10
22714;DHT22;11524;50.846;4.326;2022-08-03T07:59:24;31.80;43.20
22714;DHT22;11524;50.846;4.326;2022-08-03T08:01:50;31.70;43.40
22714;DHT22;11524;50.846;4.326;2022-08-03T08:04:18;31.50;43.60
22714;DHT22;11524;50.846;4.326;2022-08-03T08:06:43;31.40;43.90
22714;DHT22;11524;50.846;4.326;2022-08-03T08:09:09;31.20;44.20
22714;DHT22;11524;50.846;4.326;2022-08-03T08:11:36;31.10;44.40
22714;DHT22;11524;50.846;4.326;2022-08-03T08:14:02;31.00;44.70
22714;DHT22;11524;50.846;4.326;2022-08-03T08:16:29;30.90;44.90
22714;DHT22;11524;50.846;4.326;2022-08-03T08:18:55;30.80;45.10
22714;DHT22;11524;50.846;4.326;2022-08-03T08:21:21;30.80;45.20
22714;DHT22;11524;50.846;4.326;2022-08-03T08:23:47;30.80;45.30
22714;DHT22;11524;50.846;4.326;2022-08-03T08:26:12;30.80;45.20
22714;DHT22;11524;50.846;4.326;2022-08-03T08:28:38;30.70;45.10
22714;DHT22;11524;50.846;4.326;2022-08-03T08:31:04;30.70;45.10
22714;DHT22;11524;50.846;4.326;2022-08-03T08:33:30;30.70;45.30
22714;DHT22;11524;50.846;4.326;2022-08-03T08:35:55;30.70;45.20
22714;DHT22;11524;50.846;4.326;2022-08-03T08:38:22;30.70;45.20
22714;DHT22;11524;50.846;4.326;2022-08-03T08:40:49;30.70;45.30
22714;DHT22;11524;50.846;4.326;2022-08-03T08:43:15;30.70;45.30
22714;DHT22;11524;50.846;4.326;2022-08-03T08:45:40;30.70;45.30
22714;DHT22;11524;50.846;4.326;2022-08-03T08:48:07;30.80;45.10
22714;DHT22;11524;50.846;4.326;2022-08-03T08:50:34;30.90;44.80
22714;DHT22;11524;50.846;4.326;2022-08-03T08:53:02;31.10;44.40
22714;DHT22;11524;50.846;4.326;2022-08-03T08:55:30;31.20;44.00
22714;DHT22;11524;50.846;4.326;2022-08-03T08:58:04;31.30;43.70
22714;DHT22;11524;50.846;4.326;2022-08-03T09:00:31;31.50;43.60
22714;DHT22;11524;50.846;4.326;2022-08-03T09:02:57;31.60;43.30
22714;DHT22;11524;50.846;4.326;2022-08-03T09:05:23;31.60;43.20
22714;DHT22;11524;50.846;4.326;2022-08-03T09:07:49;31.60;43.10
22714;DHT22;11524;50.846;4.326;2022-08-03T09:10:17;31.60;43.60
22714;DHT22;11524;50.846;4.326;2022-08-03T09:12:50;31.60;43.30
22714;DHT22;11524;50.846;4.326;2022-08-03T09:15:25;31.60;43.20
22714;DHT22;11524;50.846;4.326;2022-08-03T09:17:54;31.60;43.20
22714;DHT22;11524;50.846;4.326;2022-08-03T09:20:21;31.60;43.20
22714;DHT22;11524;50.846;4.326;2022-08-03T09:23:00;31.50;43.10
22714;DHT22;11524;50.846;4.326;2022-08-03T09:28:16;31.40;43.20
22714;DHT22;11524;50.846;4.326;2022-08-03T09:30:44;31.20;43.50
22714;DHT22;11524;50.846;4.326;2022-08-03T09:33:12;30.90;44.40
22714;DHT22;11524;50.846;4.326;2022-08-03T09:35:46;30.70;45.30
22714;DHT22;11524;50.846;4.326;2022-08-03T09:38:20;30.50;45.50
22714;DHT22;11524;50.846;4.326;2022-08-03T09:40:50;30.40;46.00
22714;DHT22;11524;50.846;4.326;2022-08-03T09:43:16;30.30;46.30
22714;DHT22;11524;50.846;4.326;2022-08-03T09:45:42;30.20;46.30
22714;DHT22;11524;50.846;4.326;2022-08-03T09:48:31;30.10;46.50
22714;DHT22;11524;50.846;4.326;2022-08-03T09:51:01;30.10;46.60
22714;DHT22;11524;50.846;4.326;2022-08-03T09:53:30;30.00;46.60
22714;DHT22;11524;50.846;4.326;2022-08-03T09:56:01;29.90;46.70
22714;DHT22;11524;50.846;4.326;2022-08-03T09:58:31;29.90;46.80
22714;DHT22;11524;50.846;4.326;2022-08-03T10:01:04;29.90;46.80
22714;DHT22;11524;50.846;4.326;2022-08-03T10:03:56;29.80;46.80
22714;DHT22;11524;50.846;4.326;2022-08-03T10:06:22;29.80;46.90
22714;DHT22;11524;50.846;4.326;2022-08-03T10:09:04;29.80;46.90
22714;DHT22;11524;50.846;4.326;2022-08-03T10:11:31;29.80;47.10
22714;DHT22;11524;50.846;4.326;2022-08-03T10:14:06;29.80;47.10
22714;DHT22;11524;50.846;4.326;2022-08-03T10:16:37;29.70;47.00
22714;DHT22;11524;50.846;4.326;2022-08-03T10:19:04;29.70;47.00
22714;DHT22;11524;50.846;4.326;2022-08-03T10:21:37;29.70;47.00
22714;DHT22;11524;50.846;4.326;2022-08-03T10:24:06;29.70;47.00
22714;DHT22;11524;50.846;4.326;2022-08-03T10:26:33;29.70;47.00
22714;DHT22;11524;50.846;4.326;2022-08-03T10:29:02;29.70;47.00
22714;DHT22;11524;50.846;4.326;2022-08-03T10:31:35;29.70;47.00
22714;DHT22;11524;50.846;4.326;2022-08-03T10:34:04;29.70;47.00
22714;DHT22;11524;50.846;4.326;2022-08-03T10:36:32;29.70;47.00
22714;DHT22;11524;50.846;4.326;2022-08-03T10:38:59;29.70;47.00
22714;DHT22;11524;50.846;4.326;2022-08-03T10:41:36;29.70;47.00
22714;DHT22;11524;50.846;4.326;2022-08-03T10:44:13;29.70;47.00
22714;DHT22;11524;50.846;4.326;2022-08-03T10:46:42;29.60;46.90
22714;DHT22;11524;50.846;4.326;2022-08-03T10:49:14;29.60;46.90
22714;DHT22;11524;50.846;4.326;2022-08-03T10:51:42;29.60;46.90
22714;DHT22;11524;50.846;4.326;2022-08-03T10:54:38;29.60;46.90
22714;DHT22;11524;50.846;4.326;2022-08-03T11:00:07;29.70;47.00
22714;DHT22;11524;50.846;4.326;2022-08-03T11:03:11;29.70;47.00
22714;DHT22;11524;50.846;4.326;2022-08-03T11:05:46;29.60;47.10
22714;DHT22;11524;50.846;4.326;2022-08-03T11:08:19;29.60;47.20
22714;DHT22;11524;50.846;4.326;2022-08-03T11:10:48;29.60;47.20
22714;DHT22;11524;50.846;4.326;2022-08-03T11:13:15;29.60;47.20
22714;DHT22;11524;50.846;4.326;2022-08-03T11:15:45;29.60;47.20
22714;DHT22;11524;50.846;4.326;2022-08-03T11:18:12;29.60;47.20
22714;DHT22;11524;50.846;4.326;2022-08-03T11:23:18;29.60;47.20
22714;DHT22;11524;50.846;4.326;2022-08-03T11:26:12;29.60;47.00
22714;DHT22;11524;50.846;4.326;2022-08-03T11:28:39;29.60;47.00
22714;DHT22;11524;50.846;4.326;2022-08-03T11:34:06;29.60;47.00
22714;DHT22;11524;50.846;4.326;2022-08-03T11:39:39;29.60;46.90
22714;DHT22;11524;50.846;4.326;2022-08-03T11:44:50;29.60;46.70
22714;DHT22;11524;50.846;4.326;2022-08-03T11:47:16;29.50;46.60
22714;DHT22;11524;50.846;4.326;2022-08-03T11:49:50;29.60;46.70
22714;DHT22;11524;50.846;4.326;2022-08-03T11:52:16;29.50;46.60
22714;DHT22;11524;50.846;4.326;2022-08-03T11:54:42;29.50;46.60
22714;DHT22;11524;50.846;4.326;2022-08-03T11:57:08;29.50;46.60
22714;DHT22;11524;50.846;4.326;2022-08-03T11:59:35;29.50;46.70
22714;DHT22;11524;50.846;4.326;2022-08-03T12:02:09;29.50;46.80
22714;DHT22;11524;50.846;4.326;2022-08-03T12:04:55;29.50;46.80
22714;DHT22;11524;50.846;4.326;2022-08-03T12:07:29;29.50;46.80
22714;DHT22;11524;50.846;4.326;2022-08-03T12:10:12;29.50;47.40
22714;DHT22;11524;50.846;4.326;2022-08-03T12:12:40;29.50;46.80
22714;DHT22;11524;50.846;4.326;2022-08-03T12:15:07;29.50;46.80
22714;DHT22;11524;50.846;4.326;2022-08-03T12:17:38;29.50;46.80
22714;DHT22;11524;50.846;4.326;2022-08-03T12:20:07;29.50;46.80
22714;DHT22;11524;50.846;4.326;2022-08-03T12:22:38;29.50;46.80
22714;DHT22;11524;50.846;4.326;2022-08-03T12:25:05;29.50;46.80
22714;DHT22;11524;50.846;4.326;2022-08-03T12:27:31;29.50;46.80
22714;DHT22;11524;50.846;4.326;2022-08-03T12:29:58;29.50;46.80
22714;DHT22;11524;50.846;4.326;2022-08-03T12:32:24;29.50;46.80
22714;DHT22;11524;50.846;4.326;2022-08-03T12:34:50;29.50;46.80
22714;DHT22;11524;50.846;4.326;2022-08-03T12:37:21;29.50;46.80
22714;DHT22;11524;50.846;4.326;2022-08-03T12:39:55;29.50;46.90
22714;DHT22;11524;50.846;4.326;2022-08-03T12:42:32;29.50;46.90
22714;DHT22;11524;50.846;4.326;2022-08-03T12:44:58;29.50;46.80
22714;DHT22;11524;50.846;4.326;2022-08-03T12:47:24;29.50;46.90
22714;DHT22;11524;50.846;4.326;2022-08-03T12:49:53;29.50;46.90
22714;DHT22;11524;50.846;4.326;2022-08-03T12:52:21;29.50;46.80
22714;DHT22;11524;50.846;4.326;2022-08-03T12:54:54;29.50;46.80
22714;DHT22;11524;50.846;4.326;2022-08-03T12:57:21;29.50;46.90
22714;DHT22;11524;50.846;4.326;2022-08-03T12:59:47;29.50;46.80
22714;DHT22;11524;50.846;4.326;2022-08-03T13:02:23;29.50;46.90
22714;DHT22;11524;50.846;4.326;2022-08-03T13:04:51;29.50;46.80
22714;DHT22;11524;50.846;4.326;2022-08-03T13:07:17;29.50;46.80
22714;DHT22;11524;50.846;4.326;2022-08-03T13:09:48;29.50;46.70
22714;DHT22;11524;50.846;4.326;2022-08-03T13:12:15;29.50;46.70
22714;DHT22;11524;50.846;4.326;2022-08-03T13:14:43;29.50;47.20
22714;DHT22;11524;50.846;4.326;2022-08-03T13:17:08;29.50;46.60
22714;DHT22;11524;50.846;4.326;2022-08-03T13:19:35;29.50;46.50
22714;DHT22;11524;50.846;4.326;2022-08-03T13:22:10;29.50;46.50
22714;DHT22;11524;50.846;4.326;2022-08-03T13:24:37;29.60;46.60
22714;DHT22;11524;50.846;4.326;2022-08-03T13:27:03;29.60;46.60
22714;DHT22;11524;50.846;4.326;2022-08-03T13:29:31;29.60;46.60
22714;DHT22;11524;50.846;4.326;2022-08-03T13:31:57;29.60;46.60
22714;DHT22;11524;50.846;4.326;2022-08-03T13:34:22;29.60;46.70
22714;DHT22;11524;50.846;4.326;2022-08-03T13:36:48;29.60;46.70
22714;DHT22;11524;50.846;4.326;2022-08-03T13:39:14;29.60;46.70
22714;DHT22;11524;50.846;4.326;2022-08-03T13:41:40;29.50;46.80
22714;DHT22;11524;50.846;4.326;2022-08-03T13:44:06;29.60;46.90
22714;DHT22;11524;50.846;4.326;2022-08-03T13:46:31;29.60;46.90
22714;DHT22;11524;50.846;4.326;2022-08-03T13:48:57;29.60;46.90
22714;DHT22;11524;50.846;4.326;2022-08-03T13:51:22;29.60;46.90
22714;DHT22;11524;50.846;4.326;2022-08-03T13:53:50;29.60;47.00
22714;DHT22;11524;50.846;4.326;2022-08-03T13:56:16;29.60;47.10
22714;DHT22;11524;50.846;4.326;2022-08-03T13:58:42;29.60;47.30
22714;DHT22;11524;50.846;4.326;2022-08-03T14:01:08;29.60;47.40
22714;DHT22;11524;50.846;4.326;2022-08-03T14:03:33;29.60;47.40
22714;DHT22;11524;50.846;4.326;2022-08-03T14:05:59;29.60;47.40
22714;DHT22;11524;50.846;4.326;2022-08-03T14:08:25;29.60;47.40
22714;DHT22;11524;50.846;4.326;2022-08-03T14:10:51;29.70;47.40
22714;DHT22;11524;50.846;4.326;2022-08-03T14:13:17;29.60;47.30
22714;DHT22;11524;50.846;4.326;2022-08-03T14:15:46;29.70;47.10
22714;DHT22;11524;50.846;4.326;2022-08-03T14:18:13;29.70;47.00
22714;DHT22;11524;50.846;4.326;2022-08-03T14:20:39;29.60;46.90
22714;DHT22;11524;50.846;4.326;2022-08-03T14:23:05;29.60;46.90
22714;DHT22;11524;50.846;4.326;2022-08-03T14:25:31;29.60;46.80
22714;DHT22;11524;50.846;4.326;2022-08-03T14:27:57;29.60;46.80
22714;DHT22;11524;50.846;4.326;2022-08-03T14:30:22;29.60;46.70
22714;DHT22;11524;50.846;4.326;2022-08-03T14:32:48;29.60;46.70
22714;DHT22;11524;50.846;4.326;2022-08-03T14:35:13;29.60;46.70
22714;DHT22;11524;50.846;4.326;2022-08-03T14:37:39;29.60;46.60
22714;DHT22;11524;50.846;4.326;2022-08-03T14:40:06;29.60;46.60
22714;DHT22;11524;50.846;4.326;2022-08-03T14:42:32;29.60;46.60
22714;DHT22;11524;50.846;4.326;2022-08-03T14:44:57;29.70;46.70
22714;DHT22;11524;50.846;4.326;2022-08-03T14:47:23;29.60;46.60
22714;DHT22;11524;50.846;4.326;2022-08-03T14:49:49;29.60;46.70
22714;DHT22;11524;50.846;4.326;2022-08-03T14:52:17;29.60;46.70
22714;DHT22;11524;50.846;4.326;2022-08-03T14:54:46;29.70;46.70
22714;DHT22;11524;50.846;4.326;2022-08-03T14:57:11;29.70;46.70
22714;DHT22;11524;50.846;4.326;2022-08-03T14:59:37;29.60;46.70
22714;DHT22;11524;50.846;4.326;2022-08-03T15:02:02;29.70;46.80
22714;DHT22;11524;50.846;4.326;2022-08-03T15:04:28;29.70;46.70
22714;DHT22;11524;50.846;4.326;2022-08-03T15:06:54;29.60;46.60
22714;DHT22;11524;50.846;4.326;2022-08-03T15:09:19;29.70;46.60
22714;DHT22;11524;50.846;4.326;2022-08-03T15:11:45;29.70;46.60
22714;DHT22;11524;50.846;4.326;2022-08-03T15:14:11;29.70;46.50
22714;DHT22;11524;50.846;4.326;2022-08-03T15:16:37;29.70;46.50
22714;DHT22;11524;50.846;4.326;2022-08-03T15:19:03;29.70;46.50
22714;DHT22;11524;50.846;4.326;2022-08-03T15:21:29;29.70;46.50
22714;DHT22;11524;50.846;4.326;2022-08-03T15:23:54;29.70;46.60
22714;DHT22;11524;50.846;4.326;2022-08-03T15:26:20;29.70;47.30
22714;DHT22;11524;50.846;4.326;2022-08-03T15:28:47;29.70;46.70
22714;DHT22;11524;50.846;4.326;2022-08-03T15:31:12;29.70;46.70
22714;DHT22;11524;50.846;4.326;2022-08-03T15:33:38;29.70;46.80
22714;DHT22;11524;50.846;4.326;2022-08-03T15:36:04;29.70;46.90
22714;DHT22;11524;50.846;4.326;2022-08-03T15:38:30;29.70;47.00
22714;DHT22;11524;50.846;4.326;2022-08-03T15:40:55;29.70;47.00
22714;DHT22;11524;50.846;4.326;2022-08-03T15:43:22;29.70;47.00
22714;DHT22;11524;50.846;4.326;2022-08-03T15:45:48;29.70;47.10
22714;DHT22;11524;50.846;4.326;2022-08-03T15:48:15;29.70;47.10
22714;DHT22;11524;50.846;4.326;2022-08-03T15:50:41;29.70;47.10
22714;DHT22;11524;50.846;4.326;2022-08-03T15:53:08;29.70;47.10
22714;DHT22;11524;50.846;4.326;2022-08-03T15:55:33;29.70;47.10
22714;DHT22;11524;50.846;4.326;2022-08-03T15:57:59;29.70;47.20
22714;DHT22;11524;50.846;4.326;2022-08-03T16:00:24;29.80;47.40
22714;DHT22;11524;50.846;4.326;2022-08-03T16:02:50;29.80;47.50
22714;DHT22;11524;50.846;4.326;2022-08-03T16:05:16;29.80;47.60
22714;DHT22;11524;50.846;4.326;2022-08-03T16:07:41;29.70;47.50
22714;DHT22;11524;50.846;4.326;2022-08-03T16:10:08;29.70;47.50
22714;DHT22;11524;50.846;4.326;2022-08-03T16:12:35;29.80;47.60